Alva, Kentucky
Current Conditions -  °F | °C
As of 4:35 AM on Friday 28 Nov 2014 (Local Time) from KI35 Reporting Station
Overcast Overcast  
Wind Chill: -6°   Ceiling: 2700
Heat Index: -2°   Visibility: 10mi
Dew Point: -7°   Wind: 7mph
Humidity: 69%   Direction: 300°WNW
Pressure: 30.35"   Gusts: NA
Location:  36.747°N, 83.4563°W
Report Text: KI35 280935Z AUTO 30006KT 10SM OVC027 M02/M07 A3035 RMK AO1
Loading
Personal Weather Stations






























Interactive Weather Map New forecast layout! Learn more

10-Day Weather Forecast

Advertisements
Track Severe Weather on mobile